sensor_id;sensor_type;location;lat;lon;timestamp;temperature;humidity
32097;DHT22;18610;49.916;8.284;2023-03-08T00:01:55;4.80;99.90
32097;DHT22;18610;49.916;8.284;2023-03-08T00:04:22;4.80;99.90
32097;DHT22;18610;49.916;8.284;2023-03-08T00:06:48;4.80;99.90
32097;DHT22;18610;49.916;8.284;2023-03-08T00:09:16;4.80;99.90
32097;DHT22;18610;49.916;8.284;2023-03-08T00:11:43;4.80;99.90
32097;DHT22;18610;49.916;8.284;2023-03-08T00:14:10;4.70;99.90
32097;DHT22;18610;49.916;8.284;2023-03-08T00:16:36;4.70;99.90
32097;DHT22;18610;49.916;8.284;2023-03-08T00:19:03;4.70;99.90
32097;DHT22;18610;49.916;8.284;2023-03-08T00:21:30;4.70;99.90
32097;DHT22;18610;49.916;8.284;2023-03-08T00:23:56;4.80;99.90
32097;DHT22;18610;49.916;8.284;2023-03-08T00:26:24;4.70;99.90
32097;DHT22;18610;49.916;8.284;2023-03-08T00:28:51;4.80;99.90
32097;DHT22;18610;49.916;8.284;2023-03-08T00:31:18;4.80;99.90
32097;DHT22;18610;49.916;8.284;2023-03-08T00:33:44;4.90;99.90
32097;DHT22;18610;49.916;8.284;2023-03-08T00:36:13;4.90;99.90
32097;DHT22;18610;49.916;8.284;2023-03-08T00:38:40;5.00;99.90
32097;DHT22;18610;49.916;8.284;2023-03-08T00:41:07;5.00;99.90
32097;DHT22;18610;49.916;8.284;2023-03-08T00:43:35;5.00;99.90
32097;DHT22;18610;49.916;8.284;2023-03-08T00:46:03;5.10;99.90
32097;DHT22;18610;49.916;8.284;2023-03-08T00:48:30;5.10;99.90
32097;DHT22;18610;49.916;8.284;2023-03-08T00:50:56;5.10;99.90
32097;DHT22;18610;49.916;8.284;2023-03-08T00:53:23;5.10;99.90
32097;DHT22;18610;49.916;8.284;2023-03-08T00:55:51;5.10;99.90
32097;DHT22;18610;49.916;8.284;2023-03-08T00:58:18;5.10;99.90
32097;DHT22;18610;49.916;8.284;2023-03-08T01:00:46;5.10;99.90
32097;DHT22;18610;49.916;8.284;2023-03-08T01:03:14;5.10;99.90
32097;DHT22;18610;49.916;8.284;2023-03-08T01:05:41;5.10;99.90
32097;DHT22;18610;49.916;8.284;2023-03-08T01:08:08;5.10;99.90
32097;DHT22;18610;49.916;8.284;2023-03-08T01:10:35;5.10;99.90
32097;DHT22;18610;49.916;8.284;2023-03-08T01:13:02;5.10;99.90
32097;DHT22;18610;49.916;8.284;2023-03-08T01:15:29;5.10;99.90
32097;DHT22;18610;49.916;8.284;2023-03-08T01:17:57;5.10;99.90
32097;DHT22;18610;49.916;8.284;2023-03-08T01:20:24;5.10;99.90
32097;DHT22;18610;49.916;8.284;2023-03-08T01:22:50;5.10;99.90
32097;DHT22;18610;49.916;8.284;2023-03-08T01:25:17;5.10;99.90
32097;DHT22;18610;49.916;8.284;2023-03-08T01:27:44;5.20;99.90
32097;DHT22;18610;49.916;8.284;2023-03-08T01:30:11;5.10;99.90
32097;DHT22;18610;49.916;8.284;2023-03-08T01:32:38;5.20;99.90
32097;DHT22;18610;49.916;8.284;2023-03-08T01:35:06;5.20;99.90
32097;DHT22;18610;49.916;8.284;2023-03-08T01:37:33;5.10;99.90
32097;DHT22;18610;49.916;8.284;2023-03-08T01:40:00;5.10;99.90
32097;DHT22;18610;49.916;8.284;2023-03-08T01:42:27;5.10;99.90
32097;DHT22;18610;49.916;8.284;2023-03-08T01:44:55;5.10;99.90
32097;DHT22;18610;49.916;8.284;2023-03-08T01:47:24;5.10;99.90
32097;DHT22;18610;49.916;8.284;2023-03-08T01:49:53;5.10;99.90
32097;DHT22;18610;49.916;8.284;2023-03-08T01:52:25;5.10;99.90
32097;DHT22;18610;49.916;8.284;2023-03-08T01:54:56;5.10;99.90
32097;DHT22;18610;49.916;8.284;2023-03-08T01:57:27;5.10;99.90
32097;DHT22;18610;49.916;8.284;2023-03-08T01:59:57;5.10;99.90
32097;DHT22;18610;49.916;8.284;2023-03-08T02:02:30;5.10;99.90
32097;DHT22;18610;49.916;8.284;2023-03-08T02:04:59;5.10;99.90
32097;DHT22;18610;49.916;8.284;2023-03-08T02:07:27;5.00;99.90
32097;DHT22;18610;49.916;8.284;2023-03-08T02:09:54;5.00;99.90
32097;DHT22;18610;49.916;8.284;2023-03-08T02:12:21;5.00;99.90
32097;DHT22;18610;49.916;8.284;2023-03-08T02:14:49;5.00;99.90
32097;DHT22;18610;49.916;8.284;2023-03-08T02:17:15;5.00;99.90
32097;DHT22;18610;49.916;8.284;2023-03-08T02:19:45;5.00;99.90
32097;DHT22;18610;49.916;8.284;2023-03-08T02:22:15;5.00;99.90
32097;DHT22;18610;49.916;8.284;2023-03-08T02:24:43;5.00;99.90
32097;DHT22;18610;49.916;8.284;2023-03-08T02:27:13;5.00;99.90
32097;DHT22;18610;49.916;8.284;2023-03-08T02:29:40;5.00;99.90
32097;DHT22;18610;49.916;8.284;2023-03-08T02:32:07;5.10;99.90
32097;DHT22;18610;49.916;8.284;2023-03-08T02:34:34;5.00;99.90
32097;DHT22;18610;49.916;8.284;2023-03-08T02:37:01;5.00;99.90
32097;DHT22;18610;49.916;8.284;2023-03-08T02:39:28;5.00;99.90
32097;DHT22;18610;49.916;8.284;2023-03-08T02:41:56;5.00;99.90
32097;DHT22;18610;49.916;8.284;2023-03-08T02:44:23;5.00;99.90
32097;DHT22;18610;49.916;8.284;2023-03-08T02:46:50;5.00;99.90
32097;DHT22;18610;49.916;8.284;2023-03-08T02:49:17;5.00;99.90
32097;DHT22;18610;49.916;8.284;2023-03-08T02:51:43;4.90;99.90
32097;DHT22;18610;49.916;8.284;2023-03-08T02:54:10;4.90;99.90
32097;DHT22;18610;49.916;8.284;2023-03-08T02:56:37;4.90;99.90
32097;DHT22;18610;49.916;8.284;2023-03-08T02:59:05;4.90;99.90
32097;DHT22;18610;49.916;8.284;2023-03-08T03:01:31;4.90;99.90
32097;DHT22;18610;49.916;8.284;2023-03-08T03:03:58;4.80;99.90
32097;DHT22;18610;49.916;8.284;2023-03-08T03:06:25;4.80;99.90
32097;DHT22;18610;49.916;8.284;2023-03-08T03:08:51;4.70;99.90
32097;DHT22;18610;49.916;8.284;2023-03-08T03:11:20;4.70;99.90
32097;DHT22;18610;49.916;8.284;2023-03-08T03:13:52;4.70;99.90
32097;DHT22;18610;49.916;8.284;2023-03-08T03:16:20;4.70;99.90
32097;DHT22;18610;49.916;8.284;2023-03-08T03:18:47;4.70;99.90
32097;DHT22;18610;49.916;8.284;2023-03-08T03:21:14;4.70;99.90
32097;DHT22;18610;49.916;8.284;2023-03-08T03:23:41;4.70;99.90
32097;DHT22;18610;49.916;8.284;2023-03-08T03:26:10;4.70;99.90
32097;DHT22;18610;49.916;8.284;2023-03-08T03:28:37;4.70;99.90
32097;DHT22;18610;49.916;8.284;2023-03-08T03:31:06;4.70;99.90
32097;DHT22;18610;49.916;8.284;2023-03-08T03:33:34;4.60;99.90
32097;DHT22;18610;49.916;8.284;2023-03-08T03:36:01;4.70;99.90
32097;DHT22;18610;49.916;8.284;2023-03-08T03:38:28;4.70;99.90
32097;DHT22;18610;49.916;8.284;2023-03-08T03:40:59;4.60;99.90
32097;DHT22;18610;49.916;8.284;2023-03-08T03:43:26;4.70;99.90
32097;DHT22;18610;49.916;8.284;2023-03-08T03:45:54;4.70;99.90
32097;DHT22;18610;49.916;8.284;2023-03-08T03:48:21;4.70;99.90
32097;DHT22;18610;49.916;8.284;2023-03-08T03:50:54;4.70;99.90
32097;DHT22;18610;49.916;8.284;2023-03-08T03:53:20;4.70;99.90
32097;DHT22;18610;49.916;8.284;2023-03-08T03:55:48;4.70;99.90
32097;DHT22;18610;49.916;8.284;2023-03-08T03:58:15;4.80;99.90
32097;DHT22;18610;49.916;8.284;2023-03-08T04:00:42;4.80;99.90
32097;DHT22;18610;49.916;8.284;2023-03-08T04:03:09;4.80;99.90
32097;DHT22;18610;49.916;8.284;2023-03-08T04:05:36;4.90;99.90
32097;DHT22;18610;49.916;8.284;2023-03-08T04:08:05;4.80;99.90
32097;DHT22;18610;49.916;8.284;2023-03-08T04:10:32;4.90;99.90
32097;DHT22;18610;49.916;8.284;2023-03-08T04:12:59;4.80;99.90
32097;DHT22;18610;49.916;8.284;2023-03-08T04:15:26;4.80;99.90
32097;DHT22;18610;49.916;8.284;2023-03-08T04:17:53;4.80;99.90
32097;DHT22;18610;49.916;8.284;2023-03-08T04:20:19;4.80;99.90
32097;DHT22;18610;49.916;8.284;2023-03-08T04:22:46;4.80;99.90
32097;DHT22;18610;49.916;8.284;2023-03-08T04:25:14;4.80;99.90
32097;DHT22;18610;49.916;8.284;2023-03-08T04:27:41;4.80;99.90
32097;DHT22;18610;49.916;8.284;2023-03-08T04:30:09;4.80;99.90
32097;DHT22;18610;49.916;8.284;2023-03-08T04:32:36;4.80;99.90
32097;DHT22;18610;49.916;8.284;2023-03-08T04:35:03;4.80;99.90
32097;DHT22;18610;49.916;8.284;2023-03-08T04:37:30;4.80;99.90
32097;DHT22;18610;49.916;8.284;2023-03-08T04:39:57;4.70;99.90
32097;DHT22;18610;49.916;8.284;2023-03-08T04:42:25;4.70;99.90
32097;DHT22;18610;49.916;8.284;2023-03-08T04:44:51;4.70;99.90
32097;DHT22;18610;49.916;8.284;2023-03-08T04:47:18;4.70;99.90
32097;DHT22;18610;49.916;8.284;2023-03-08T04:49:45;4.70;99.90
32097;DHT22;18610;49.916;8.284;2023-03-08T04:52:11;4.70;99.90
32097;DHT22;18610;49.916;8.284;2023-03-08T04:54:38;4.70;99.90
32097;DHT22;18610;49.916;8.284;2023-03-08T04:57:05;4.70;99.90
32097;DHT22;18610;49.916;8.284;2023-03-08T04:59:33;4.70;99.90
32097;DHT22;18610;49.916;8.284;2023-03-08T05:01:59;4.70;99.90
32097;DHT22;18610;49.916;8.284;2023-03-08T05:04:26;4.70;99.90
32097;DHT22;18610;49.916;8.284;2023-03-08T05:06:53;4.70;99.90
32097;DHT22;18610;49.916;8.284;2023-03-08T05:09:19;4.70;99.90
32097;DHT22;18610;49.916;8.284;2023-03-08T05:11:46;4.70;99.90
32097;DHT22;18610;49.916;8.284;2023-03-08T05:14:12;4.70;99.90
32097;DHT22;18610;49.916;8.284;2023-03-08T05:16:40;4.70;99.90
32097;DHT22;18610;49.916;8.284;2023-03-08T05:19:07;4.70;99.90
32097;DHT22;18610;49.916;8.284;2023-03-08T05:21:34;4.80;99.90
32097;DHT22;18610;49.916;8.284;2023-03-08T05:24:00;4.80;99.90
32097;DHT22;18610;49.916;8.284;2023-03-08T05:26:27;4.80;99.90
32097;DHT22;18610;49.916;8.284;2023-03-08T05:28:54;4.80;99.90
32097;DHT22;18610;49.916;8.284;2023-03-08T05:31:21;4.80;99.90
32097;DHT22;18610;49.916;8.284;2023-03-08T05:33:50;4.80;99.90
32097;DHT22;18610;49.916;8.284;2023-03-08T05:36:18;4.90;99.90
32097;DHT22;18610;49.916;8.284;2023-03-08T05:38:45;4.90;99.90
32097;DHT22;18610;49.916;8.284;2023-03-08T05:41:14;4.90;99.90
32097;DHT22;18610;49.916;8.284;2023-03-08T05:43:41;4.90;99.90
32097;DHT22;18610;49.916;8.284;2023-03-08T05:46:10;4.90;99.90
32097;DHT22;18610;49.916;8.284;2023-03-08T05:48:37;4.90;99.90
32097;DHT22;18610;49.916;8.284;2023-03-08T05:51:07;4.90;99.90
32097;DHT22;18610;49.916;8.284;2023-03-08T05:53:34;4.90;99.90
32097;DHT22;18610;49.916;8.284;2023-03-08T05:56:06;4.80;99.90
32097;DHT22;18610;49.916;8.284;2023-03-08T05:58:34;4.80;99.90
32097;DHT22;18610;49.916;8.284;2023-03-08T06:01:08;4.90;99.90
32097;DHT22;18610;49.916;8.284;2023-03-08T06:03:34;4.90;99.90
32097;DHT22;18610;49.916;8.284;2023-03-08T06:06:01;4.90;99.90
32097;DHT22;18610;49.916;8.284;2023-03-08T06:08:29;4.90;99.90
32097;DHT22;18610;49.916;8.284;2023-03-08T06:10:55;4.90;99.90
32097;DHT22;18610;49.916;8.284;2023-03-08T06:13:22;4.90;99.90
32097;DHT22;18610;49.916;8.284;2023-03-08T06:15:53;4.90;99.90
32097;DHT22;18610;49.916;8.284;2023-03-08T06:18:19;5.00;99.90
32097;DHT22;18610;49.916;8.284;2023-03-08T06:20:55;5.00;99.90
32097;DHT22;18610;49.916;8.284;2023-03-08T06:23:21;5.10;99.90
32097;DHT22;18610;49.916;8.284;2023-03-08T06:25:49;5.10;99.90
32097;DHT22;18610;49.916;8.284;2023-03-08T06:28:16;5.10;99.90
32097;DHT22;18610;49.916;8.284;2023-03-08T06:30:43;5.10;99.90
32097;DHT22;18610;49.916;8.284;2023-03-08T06:33:09;5.10;99.90
32097;DHT22;18610;49.916;8.284;2023-03-08T06:35:36;5.10;99.90
32097;DHT22;18610;49.916;8.284;2023-03-08T06:38:03;5.10;99.90
32097;DHT22;18610;49.916;8.284;2023-03-08T06:40:30;5.10;99.90
32097;DHT22;18610;49.916;8.284;2023-03-08T06:42:58;5.10;99.90
32097;DHT22;18610;49.916;8.284;2023-03-08T06:45:25;5.10;99.90
32097;DHT22;18610;49.916;8.284;2023-03-08T06:47:51;5.10;99.90
32097;DHT22;18610;49.916;8.284;2023-03-08T06:50:18;5.20;99.90
32097;DHT22;18610;49.916;8.284;2023-03-08T06:52:45;5.20;99.90
32097;DHT22;18610;49.916;8.284;2023-03-08T06:55:11;5.20;99.90
32097;DHT22;18610;49.916;8.284;2023-03-08T06:57:38;5.20;99.90
32097;DHT22;18610;49.916;8.284;2023-03-08T07:00:08;5.20;99.90
32097;DHT22;18610;49.916;8.284;2023-03-08T07:02:35;5.20;99.90
32097;DHT22;18610;49.916;8.284;2023-03-08T07:05:02;5.20;99.90
32097;DHT22;18610;49.916;8.284;2023-03-08T07:07:29;5.20;99.90
32097;DHT22;18610;49.916;8.284;2023-03-08T07:09:56;5.20;99.90
32097;DHT22;18610;49.916;8.284;2023-03-08T07:12:23;5.20;99.90
32097;DHT22;18610;49.916;8.284;2023-03-08T07:14:50;5.20;99.90
32097;DHT22;18610;49.916;8.284;2023-03-08T07:17:19;5.20;99.90
32097;DHT22;18610;49.916;8.284;2023-03-08T07:19:46;5.20;99.90
32097;DHT22;18610;49.916;8.284;2023-03-08T07:22:12;5.20;99.90
32097;DHT22;18610;49.916;8.284;2023-03-08T07:24:39;5.20;99.90
32097;DHT22;18610;49.916;8.284;2023-03-08T07:27:06;5.10;99.90
32097;DHT22;18610;49.916;8.284;2023-03-08T07:29:32;5.00;99.90
32097;DHT22;18610;49.916;8.284;2023-03-08T07:31:59;4.90;99.90
32097;DHT22;18610;49.916;8.284;2023-03-08T07:34:27;4.80;99.90
32097;DHT22;18610;49.916;8.284;2023-03-08T07:36:54;4.80;99.90
32097;DHT22;18610;49.916;8.284;2023-03-08T07:39:20;4.70;99.90
32097;DHT22;18610;49.916;8.284;2023-03-08T07:41:47;4.70;99.90
32097;DHT22;18610;49.916;8.284;2023-03-08T07:44:14;4.60;99.90
32097;DHT22;18610;49.916;8.284;2023-03-08T07:46:41;4.50;99.90
32097;DHT22;18610;49.916;8.284;2023-03-08T07:49:08;4.50;99.90
32097;DHT22;18610;49.916;8.284;2023-03-08T07:51:37;4.40;99.90
32097;DHT22;18610;49.916;8.284;2023-03-08T07:54:04;4.40;99.90
32097;DHT22;18610;49.916;8.284;2023-03-08T07:56:32;4.30;99.90
32097;DHT22;18610;49.916;8.284;2023-03-08T07:58:58;4.30;99.90
32097;DHT22;18610;49.916;8.284;2023-03-08T08:01:25;4.30;99.90
32097;DHT22;18610;49.916;8.284;2023-03-08T08:03:51;4.20;99.90
32097;DHT22;18610;49.916;8.284;2023-03-08T08:06:18;4.20;99.90
32097;DHT22;18610;49.916;8.284;2023-03-08T08:08:46;4.20;99.90
32097;DHT22;18610;49.916;8.284;2023-03-08T08:11:14;4.20;99.90
32097;DHT22;18610;49.916;8.284;2023-03-08T08:13:41;4.20;99.90
32097;DHT22;18610;49.916;8.284;2023-03-08T08:16:08;4.20;99.90
32097;DHT22;18610;49.916;8.284;2023-03-08T08:18:35;4.10;99.90
32097;DHT22;18610;49.916;8.284;2023-03-08T08:21:04;4.10;99.90
32097;DHT22;18610;49.916;8.284;2023-03-08T08:23:31;4.10;99.90
32097;DHT22;18610;49.916;8.284;2023-03-08T08:26:02;4.10;99.90
32097;DHT22;18610;49.916;8.284;2023-03-08T08:28:29;4.10;99.90
32097;DHT22;18610;49.916;8.284;2023-03-08T08:30:57;4.00;99.90
32097;DHT22;18610;49.916;8.284;2023-03-08T08:33:24;4.00;99.90
32097;DHT22;18610;49.916;8.284;2023-03-08T08:35:51;4.00;99.90
32097;DHT22;18610;49.916;8.284;2023-03-08T08:38:18;4.00;99.90
32097;DHT22;18610;49.916;8.284;2023-03-08T08:40:45;3.90;99.90
32097;DHT22;18610;49.916;8.284;2023-03-08T08:43:13;3.90;99.90
32097;DHT22;18610;49.916;8.284;2023-03-08T08:45:44;3.80;99.90
32097;DHT22;18610;49.916;8.284;2023-03-08T08:48:11;3.80;99.90
32097;DHT22;18610;49.916;8.284;2023-03-08T08:50:38;3.70;99.90
32097;DHT22;18610;49.916;8.284;2023-03-08T08:53:05;3.70;99.90
32097;DHT22;18610;49.916;8.284;2023-03-08T08:55:32;3.70;99.90
32097;DHT22;18610;49.916;8.284;2023-03-08T08:58:00;3.80;99.90
32097;DHT22;18610;49.916;8.284;2023-03-08T09:00:28;3.80;99.90
32097;DHT22;18610;49.916;8.284;2023-03-08T09:02:55;3.80;99.90
32097;DHT22;18610;49.916;8.284;2023-03-08T09:05:22;3.80;99.90
32097;DHT22;18610;49.916;8.284;2023-03-08T09:07:48;3.90;99.90
32097;DHT22;18610;49.916;8.284;2023-03-08T09:10:15;4.00;99.90
32097;DHT22;18610;49.916;8.284;2023-03-08T09:12:42;4.00;99.90
32097;DHT22;18610;49.916;8.284;2023-03-08T09:15:09;4.00;99.90
32097;DHT22;18610;49.916;8.284;2023-03-08T09:17:38;4.10;99.90
32097;DHT22;18610;49.916;8.284;2023-03-08T09:20:06;4.00;99.90
32097;DHT22;18610;49.916;8.284;2023-03-08T09:22:34;4.10;99.90
32097;DHT22;18610;49.916;8.284;2023-03-08T09:25:01;4.10;99.90
32097;DHT22;18610;49.916;8.284;2023-03-08T09:27:27;4.10;99.90
32097;DHT22;18610;49.916;8.284;2023-03-08T09:29:54;4.10;99.90
32097;DHT22;18610;49.916;8.284;2023-03-08T09:32:21;4.20;99.90
32097;DHT22;18610;49.916;8.284;2023-03-08T09:34:49;4.20;99.90
32097;DHT22;18610;49.916;8.284;2023-03-08T09:37:15;4.20;99.90
32097;DHT22;18610;49.916;8.284;2023-03-08T09:39:43;4.10;99.90
32097;DHT22;18610;49.916;8.284;2023-03-08T09:42:16;4.20;99.90
32097;DHT22;18610;49.916;8.284;2023-03-08T09:45:02;4.20;99.90
32097;DHT22;18610;49.916;8.284;2023-03-08T09:47:36;4.10;99.90
32097;DHT22;18610;49.916;8.284;2023-03-08T09:50:20;4.10;99.90
32097;DHT22;18610;49.916;8.284;2023-03-08T09:52:52;4.20;99.90
32097;DHT22;18610;49.916;8.284;2023-03-08T09:55:23;4.20;99.90
32097;DHT22;18610;49.916;8.284;2023-03-08T09:57:55;4.20;99.90
32097;DHT22;18610;49.916;8.284;2023-03-08T10:00:27;4.20;99.90
32097;DHT22;18610;49.916;8.284;2023-03-08T10:03:11;4.30;99.90
32097;DHT22;18610;49.916;8.284;2023-03-08T10:05:51;4.30;99.90
32097;DHT22;18610;49.916;8.284;2023-03-08T10:08:24;4.30;99.90
32097;DHT22;18610;49.916;8.284;2023-03-08T10:10:56;4.30;99.90
32097;DHT22;18610;49.916;8.284;2023-03-08T10:13:32;4.40;99.90
32097;DHT22;18610;49.916;8.284;2023-03-08T10:16:11;4.40;99.90
32097;DHT22;18610;49.916;8.284;2023-03-08T10:18:43;4.40;99.90
32097;DHT22;18610;49.916;8.284;2023-03-08T10:21:14;4.40;99.90
32097;DHT22;18610;49.916;8.284;2023-03-08T10:23:45;4.40;99.90
32097;DHT22;18610;49.916;8.284;2023-03-08T10:26:13;4.40;99.90
32097;DHT22;18610;49.916;8.284;2023-03-08T10:28:40;4.40;99.90
32097;DHT22;18610;49.916;8.284;2023-03-08T10:31:21;4.50;99.90
32097;DHT22;18610;49.916;8.284;2023-03-08T10:33:52;4.50;99.90
32097;DHT22;18610;49.916;8.284;2023-03-08T10:36:23;4.50;99.90
32097;DHT22;18610;49.916;8.284;2023-03-08T10:38:58;4.50;99.90
32097;DHT22;18610;49.916;8.284;2023-03-08T10:41:26;4.50;99.90
32097;DHT22;18610;49.916;8.284;2023-03-08T10:43:57;4.60;99.90
32097;DHT22;18610;49.916;8.284;2023-03-08T10:46:26;4.60;99.90
32097;DHT22;18610;49.916;8.284;2023-03-08T10:49:05;4.60;99.90
32097;DHT22;18610;49.916;8.284;2023-03-08T10:51:34;4.50;99.90
32097;DHT22;18610;49.916;8.284;2023-03-08T10:54:03;4.60;99.90
32097;DHT22;18610;49.916;8.284;2023-03-08T10:56:35;4.60;99.90
32097;DHT22;18610;49.916;8.284;2023-03-08T10:59:03;4.50;99.90
32097;DHT22;18610;49.916;8.284;2023-03-08T11:01:32;4.60;99.90
32097;DHT22;18610;49.916;8.284;2023-03-08T11:04:01;4.50;99.90
32097;DHT22;18610;49.916;8.284;2023-03-08T11:06:28;4.50;99.90
32097;DHT22;18610;49.916;8.284;2023-03-08T11:08:58;4.50;99.90
32097;DHT22;18610;49.916;8.284;2023-03-08T11:11:25;4.50;99.90
32097;DHT22;18610;49.916;8.284;2023-03-08T11:13:53;4.60;99.90
32097;DHT22;18610;49.916;8.284;2023-03-08T11:16:46;4.50;99.90
32097;DHT22;18610;49.916;8.284;2023-03-08T11:19:31;4.50;99.90
32097;DHT22;18610;49.916;8.284;2023-03-08T11:22:04;4.40;99.90
32097;DHT22;18610;49.916;8.284;2023-03-08T11:24:50;4.30;99.90
32097;DHT22;18610;49.916;8.284;2023-03-08T11:27:21;4.30;99.90
32097;DHT22;18610;49.916;8.284;2023-03-08T11:30:01;4.30;99.90
32097;DHT22;18610;49.916;8.284;2023-03-08T11:32:42;4.30;99.90
32097;DHT22;18610;49.916;8.284;2023-03-08T11:35:18;4.30;99.90
32097;DHT22;18610;49.916;8.284;2023-03-08T11:37:55;4.30;99.90
32097;DHT22;18610;49.916;8.284;2023-03-08T11:40:28;4.30;99.90
32097;DHT22;18610;49.916;8.284;2023-03-08T11:43:07;4.40;99.90
32097;DHT22;18610;49.916;8.284;2023-03-08T11:45:40;4.50;99.90
32097;DHT22;18610;49.916;8.284;2023-03-08T11:48:25;4.50;99.90
32097;DHT22;18610;49.916;8.284;2023-03-08T11:50:59;4.60;99.90
32097;DHT22;18610;49.916;8.284;2023-03-08T11:53:38;4.60;99.90
32097;DHT22;18610;49.916;8.284;2023-03-08T11:56:23;4.70;99.90
32097;DHT22;18610;49.916;8.284;2023-03-08T11:58:57;4.70;99.90
32097;DHT22;18610;49.916;8.284;2023-03-08T12:01:30;4.80;99.90
32097;DHT22;18610;49.916;8.284;2023-03-08T12:04:04;4.80;99.90
32097;DHT22;18610;49.916;8.284;2023-03-08T12:06:36;4.80;99.90
32097;DHT22;18610;49.916;8.284;2023-03-08T12:09:07;4.90;99.90
32097;DHT22;18610;49.916;8.284;2023-03-08T12:11:38;4.90;99.90
32097;DHT22;18610;49.916;8.284;2023-03-08T12:14:12;5.00;99.90
32097;DHT22;18610;49.916;8.284;2023-03-08T12:16:45;5.00;99.90
32097;DHT22;18610;49.916;8.284;2023-03-08T12:19:19;5.10;99.90
32097;DHT22;18610;49.916;8.284;2023-03-08T12:21:54;5.10;99.90
32097;DHT22;18610;49.916;8.284;2023-03-08T12:24:30;5.20;99.90
32097;DHT22;18610;49.916;8.284;2023-03-08T12:27:05;5.20;99.90
32097;DHT22;18610;49.916;8.284;2023-03-08T12:29:36;5.20;99.90
32097;DHT22;18610;49.916;8.284;2023-03-08T12:32:05;5.20;99.90
32097;DHT22;18610;49.916;8.284;2023-03-08T12:34:37;5.20;99.90
32097;DHT22;18610;49.916;8.284;2023-03-08T12:37:04;5.20;99.90
32097;DHT22;18610;49.916;8.284;2023-03-08T12:39:32;5.30;99.90
32097;DHT22;18610;49.916;8.284;2023-03-08T12:42:13;5.30;99.90
32097;DHT22;18610;49.916;8.284;2023-03-08T12:44:40;5.30;99.90
32097;DHT22;18610;49.916;8.284;2023-03-08T12:47:18;5.30;99.90
32097;DHT22;18610;49.916;8.284;2023-03-08T12:49:48;5.40;99.90
32097;DHT22;18610;49.916;8.284;2023-03-08T12:52:25;5.50;99.90
32097;DHT22;18610;49.916;8.284;2023-03-08T12:54:58;5.50;99.90
32097;DHT22;18610;49.916;8.284;2023-03-08T12:57:30;5.50;99.90
32097;DHT22;18610;49.916;8.284;2023-03-08T12:59:59;5.50;99.90
32097;DHT22;18610;49.916;8.284;2023-03-08T13:02:31;5.50;99.90
32097;DHT22;18610;49.916;8.284;2023-03-08T13:05:03;5.50;99.90
32097;DHT22;18610;49.916;8.284;2023-03-08T13:07:34;5.60;99.90
32097;DHT22;18610;49.916;8.284;2023-03-08T13:10:07;5.60;99.90
32097;DHT22;18610;49.916;8.284;2023-03-08T13:12:49;5.60;99.90
32097;DHT22;18610;49.916;8.284;2023-03-08T13:15:23;5.70;99.90
32097;DHT22;18610;49.916;8.284;2023-03-08T13:17:57;5.70;99.90
32097;DHT22;18610;49.916;8.284;2023-03-08T13:20:28;5.70;99.90
32097;DHT22;18610;49.916;8.284;2023-03-08T13:23:02;5.80;99.90
32097;DHT22;18610;49.916;8.284;2023-03-08T13:25:43;5.80;99.90
32097;DHT22;18610;49.916;8.284;2023-03-08T13:28:17;5.70;99.90
32097;DHT22;18610;49.916;8.284;2023-03-08T13:30:46;5.80;99.90
32097;DHT22;18610;49.916;8.284;2023-03-08T13:33:19;5.80;99.90
32097;DHT22;18610;49.916;8.284;2023-03-08T13:35:57;5.80;99.90
32097;DHT22;18610;49.916;8.284;2023-03-08T13:38:37;5.90;99.90
32097;DHT22;18610;49.916;8.284;2023-03-08T13:41:04;5.80;99.90
32097;DHT22;18610;49.916;8.284;2023-03-08T13:43:33;5.80;99.90
32097;DHT22;18610;49.916;8.284;2023-03-08T13:46:02;5.90;99.90
32097;DHT22;18610;49.916;8.284;2023-03-08T13:48:32;5.90;99.90
32097;DHT22;18610;49.916;8.284;2023-03-08T13:51:00;5.90;99.90
32097;DHT22;18610;49.916;8.284;2023-03-08T13:53:29;5.90;99.90
32097;DHT22;18610;49.916;8.284;2023-03-08T13:55:59;5.80;99.90
32097;DHT22;18610;49.916;8.284;2023-03-08T13:58:31;5.90;99.90
32097;DHT22;18610;49.916;8.284;2023-03-08T14:01:00;5.90;99.90
32097;DHT22;18610;49.916;8.284;2023-03-08T14:03:28;5.90;99.90
32097;DHT22;18610;49.916;8.284;2023-03-08T14:05:55;6.00;99.90
32097;DHT22;18610;49.916;8.284;2023-03-08T14:08:23;6.00;99.90
32097;DHT22;18610;49.916;8.284;2023-03-08T14:10:52;6.00;99.90
32097;DHT22;18610;49.916;8.284;2023-03-08T14:13:25;6.00;99.90
32097;DHT22;18610;49.916;8.284;2023-03-08T14:15:55;6.00;99.90
32097;DHT22;18610;49.916;8.284;2023-03-08T14:18:24;6.10;99.90
32097;DHT22;18610;49.916;8.284;2023-03-08T14:21:04;6.20;99.90
32097;DHT22;18610;49.916;8.284;2023-03-08T14:23:35;6.20;99.90
32097;DHT22;18610;49.916;8.284;2023-03-08T14:26:03;6.20;99.90
32097;DHT22;18610;49.916;8.284;2023-03-08T14:28:36;6.30;99.90
32097;DHT22;18610;49.916;8.284;2023-03-08T14:31:22;6.30;99.90
32097;DHT22;18610;49.916;8.284;2023-03-08T14:34:00;6.40;99.90
32097;DHT22;18610;49.916;8.284;2023-03-08T14:36:30;6.50;99.90
32097;DHT22;18610;49.916;8.284;2023-03-08T14:38:58;6.50;99.90
32097;DHT22;18610;49.916;8.284;2023-03-08T14:41:30;6.60;99.90
32097;DHT22;18610;49.916;8.284;2023-03-08T14:43:57;6.60;99.90
32097;DHT22;18610;49.916;8.284;2023-03-08T14:46:25;6.70;99.90
32097;DHT22;18610;49.916;8.284;2023-03-08T14:48:58;6.70;99.90
32097;DHT22;18610;49.916;8.284;2023-03-08T14:51:28;6.70;99.90
32097;DHT22;18610;49.916;8.284;2023-03-08T14:53:57;6.80;99.90
32097;DHT22;18610;49.916;8.284;2023-03-08T14:56:24;6.80;99.90
32097;DHT22;18610;49.916;8.284;2023-03-08T14:58:51;6.90;99.90
32097;DHT22;18610;49.916;8.284;2023-03-08T15:01:27;6.90;99.90
32097;DHT22;18610;49.916;8.284;2023-03-08T15:03:55;7.00;99.90
32097;DHT22;18610;49.916;8.284;2023-03-08T15:06:25;7.00;99.90
32097;DHT22;18610;49.916;8.284;2023-03-08T15:08:52;7.00;99.90
32097;DHT22;18610;49.916;8.284;2023-03-08T15:11:20;7.10;99.90
32097;DHT22;18610;49.916;8.284;2023-03-08T15:13:47;7.10;99.90
32097;DHT22;18610;49.916;8.284;2023-03-08T15:16:14;7.10;99.90
32097;DHT22;18610;49.916;8.284;2023-03-08T15:18:42;7.10;99.90
32097;DHT22;18610;49.916;8.284;2023-03-08T15:21:11;7.10;99.90
32097;DHT22;18610;49.916;8.284;2023-03-08T15:23:39;7.10;99.90
32097;DHT22;18610;49.916;8.284;2023-03-08T15:26:09;7.20;99.90
32097;DHT22;18610;49.916;8.284;2023-03-08T15:28:36;7.10;99.90
32097;DHT22;18610;49.916;8.284;2023-03-08T15:31:03;7.20;99.90
32097;DHT22;18610;49.916;8.284;2023-03-08T15:33:30;7.20;99.90
32097;DHT22;18610;49.916;8.284;2023-03-08T15:35:58;7.20;99.90
32097;DHT22;18610;49.916;8.284;2023-03-08T15:38:25;7.20;99.90
32097;DHT22;18610;49.916;8.284;2023-03-08T15:40:52;7.30;99.90
32097;DHT22;18610;49.916;8.284;2023-03-08T15:43:18;7.30;99.90
32097;DHT22;18610;49.916;8.284;2023-03-08T15:45:45;7.30;99.90
32097;DHT22;18610;49.916;8.284;2023-03-08T15:48:13;7.20;99.90
32097;DHT22;18610;49.916;8.284;2023-03-08T15:50:41;7.30;99.90
32097;DHT22;18610;49.916;8.284;2023-03-08T15:53:10;7.30;99.90
32097;DHT22;18610;49.916;8.284;2023-03-08T15:55:38;7.30;99.90
32097;DHT22;18610;49.916;8.284;2023-03-08T15:58:05;7.30;99.90